メインページ
METAR-TAF:

METAR-TAF

空港 :

ラナイ・シティ, ハワイ州, アメリカ合衆国

緯度: 20-47N, 経度: 156-57W, 海抜: 399m

現時点の気象観測

当レポートは1時間26分前の23:56(UTC)に作成
北東の風 16kt、最大19ktの突風を伴う
気温 27°C
湿度 62%
気圧 1014 hPa
視程: 16.1km
晴天

METAR: PHNY 182356Z AUTO 04016G19KT 10SM CLR 27/19 A2993

時間: 15:22 (01:22 UTC)

予報

当レポートは1時間49分前の23:33(UTC)に作成
予報は19日の 00時(UTC)から 19日の 24時(UTC)まで有効
北東の風 12kt、最大18ktの突風を伴う
視程: 10km
高度3000ftの雲は散在している
高度4500ftの千切れ雲あり
19日の 0600時(UTC)から
北東の風 8kt
視程: 10km
高度4500ftの雲はほとんどない
19日の 2200時(UTC)から
北東の風 12kt、最大18ktの突風を伴う
視程: 10km
高度3000ftの雲は散在している
高度4500ftの千切れ雲あり

TAF: PHNY 182333Z 1900/1924 04012G18KT P6SM SCT030 BKN045 FM190600 04008KT P6SM FEW045 FM192200 04012G18KT P6SM SCT030 BKN045 AMD NOT SKED

4,000以上の空港の気象観測と天気予報(METAR報とTAF報)

利用可能な観測所は地図上に黄色い丸と赤い丸で示す。

丸の上にカーソルを重ねると観測所名を参照できる。

次にクリックすると気象観測と天気予報を参照できる。

マップの切り替え:黒色「×」印の緑ボタンをクリックして拡大、「-」印の緑ボタンをクリックして縮小、緑色の三角印をクリックして隣りの地図に切り替え


METAR-TAF: